Arcata, CA

1:52 AM PDT on August 28, 2016 (GMT -0700)
APRSWXNET | | Change Station

Elev 5 ft 40.86 °N, 124.09 °W | Updated 24 minutes ago

Overcast
Overcast
55 °F
Feels Like 55 °F
N
1
Wind Variable Wind from NW
Gusts 3.0 mph

Today
High -- | Low -- °F
--% Chance of Precip.
Yesterday
High -- | Low -- °F
Precip. -- in
Pressure 30.06 in
Visibility 6.0 miles
Clouds Overcast 500 ft
Dew Point 54 °F
Humidity 97%
Rainfall in
Snow Depth Not available.
6:39 AM 7:54 PM
Waning Crescent, 17% visible
METAR KACV 280753Z AUTO 34003KT 6SM BR OVC005 13/12 A3004 RMK AO2 RAE0657 SLP177 P0000 T01280122 401720128
Pressure 30.06 in
Visibility 6.0 miles
Clouds Overcast 500 ft
Dew Point 54 °F
Humidity 97%
Rainfall in
Snow Depth Not available.
6:39 AM 7:54 PM
Waning Crescent, 17% visible
METAR KACV 280753Z AUTO 34003KT 6SM BR OVC005 13/12 A3004 RMK AO2 RAE0657 SLP177 P0000 T01280122 401720128

10-Day Weather Forecast

Almanac

Astronomy

Aug. 28, 2016 Rise Set
Actual Time
Civil Twilight
Nautical Twilight
Astronomical Twilight
Moon
Length of Visible Light
Length of Day
Tomorrow will be .
, % of the Moon is Illuminated

Today's Extremes

State Highs State Lows

Community

WunderPhotos

Upload Photos

1,935,540 photos uploaded!

WunderBlog® & News

Nearby

Air Quality

  Air Quality AQ Index Pollutant
Not available.

Snow Depth

Station Depth Elevation

Earthquake Activity

City Distance Mag. Time & Date
Minimum magnitude displayed is 2.5.

Coastal Water Temperatures

Place Temperature

Stations

Nearby Weather Stations

Station Location Temp. Windchill Dew Point Humidity Wind Precip. Elev Updated Type
                   

Watches & Warnings

There are currently no watches in effect.